Latest Weather Observations for Yarrawonga

IDV60801

Issued at 8:05 pm EST Monday 21 April 2014 (issued every 30 minutes, with the page automatically refreshed every 10 minutes)

About weather observations | Map of weather stations | Latest weather observations for VIC | Other Formats
Station Details ID: 081124 Name: YARRAWONGA Lat: -36.03 Lon: 146.03 Height: 128.9 m
Data from the previous 72 hours. | See also: Recent months at Yarrawonga
Date/Time
EST
Temp
°C
App
Temp
°C
Dew
Point
Rel
Hum
%
Delta-T
°C
Wind Press
QNH
hPa
Press
MSL
hPa
Rain
since 9 am
mm
Dir
 
Spd
km/h
Gust
km/h
Spd
kts
Gust
kts
21/08:00pm 11.7 9.7 8.6 81 1.5 E 9 11 5 6 1019.3 1019.2 0.0
21/07:30pm 11.7 9.6 8.2 79 1.7 E 9 11 5 6 1019.4 - 0.0
21/07:00pm 12.5 10.2 7.6 72 2.4 E 9 11 5 6 1019.5 1019.4 0.0
21/06:30pm 12.2 9.6 7.7 74 2.2 E 11 11 6 6 1019.3 - 0.0
21/06:00pm 13.4 11.2 7.8 69 2.8 ENE 9 11 5 6 1019.3 1019.2 0.0
21/05:30pm 15.6 13.7 7.6 59 4.0 ENE 7 11 4 6 1019.2 - 0.0
21/05:00pm 17.0 14.9 6.5 50 5.2 NE 7 11 4 6 1019.1 1019.0 0.0
21/04:30pm 17.7 15.1 6.3 47 5.6 NE 9 15 5 8 1019.1 - 0.0
21/04:00pm 17.8 15.1 5.7 45 5.9 NNE 9 15 5 8 1019.1 1019.0 0.0
21/03:30pm 18.1 15.2 6.3 46 5.9 NNE 11 17 6 9 1019.0 - 0.0
21/03:00pm 17.8 15.1 5.7 45 5.9 NNE 9 13 5 7 1019.3 1019.2 0.0
21/02:30pm 17.8 15.2 6.0 46 5.8 NNE 9 17 5 9 1019.2 - 0.0
21/02:00pm 17.9 15.9 6.1 46 5.8 NE 6 13 3 7 1019.5 1019.4 0.0
21/01:30pm 17.6 15.5 6.5 48 5.5 NNE 7 11 4 6 1019.8 - 0.0
21/01:00pm 16.6 14.6 6.1 50 5.1 E 6 13 3 7 1020.1 1020.0 0.0
21/12:30pm 16.0 14.4 6.4 53 4.7 NNE 4 7 2 4 1020.7 - 0.0
21/12:00pm 15.5 13.6 6.8 56 4.3 NE 6 9 3 5 1021.3 1021.2 0.0
21/11:30am 15.2 12.6 6.2 55 4.4 NNE 9 15 5 8 1021.4 - 0.0
21/11:00am 15.0 12.6 7.1 59 3.9 NNE 9 13 5 7 1021.8 1021.7 0.0
21/10:30am 13.4 10.8 7.8 69 2.8 NE 11 15 6 8 1021.5 - 0.0
21/10:00am 13.2 11.0 7.9 70 2.6 NE 9 15 5 8 1021.8 1021.7 0.0
21/09:30am 12.3 10.0 7.6 73 2.3 ENE 9 15 5 8 1022.2 - 0.0
21/09:00am 10.3 8.1 7.9 85 1.2 E 9 13 5 7 1022.2 1022.1 0.0
21/08:30am 9.4 7.4 7.2 86 1.0 E 7 13 4 7 1022.4 - 0.0
21/08:00am 8.7 6.7 7.2 90 0.7 E 7 9 4 5 1022.1 1022.0 0.0
21/07:30am 6.9 4.8 6.5 97 0.2 E 7 9 4 5 1021.8 - 0.0
21/07:00am 5.2 2.3 4.9 98 0.1 E 9 11 5 6 1021.4 1021.3 0.0
21/06:30am 4.7 1.4 4.4 98 0.1 E 11 13 6 7 1021.4 - 0.0
21/06:00am 4.4 1.8 4.1 98 0.1 E 7 7 4 4 1021.4 1021.3 0.0
21/05:30am 4.5 2.1 4.2 98 0.1 E 6 7 3 4 1021.0 - 0.0
21/05:00am 4.9 2.4 4.6 98 0.1 ENE 7 9 4 5 1020.7 1020.6 0.0
21/04:30am 5.0 2.5 4.7 98 0.1 E 7 7 4 4 1020.5 - 0.0
21/04:00am 5.0 2.5 4.6 97 0.2 E 7 9 4 5 1020.3 1020.2 0.0
21/03:30am 5.4 3.1 5.0 97 0.2 E 6 7 3 4 1020.1 - 0.0
21/03:00am 5.8 3.6 5.4 97 0.2 ESE 6 7 3 4 1020.1 1020.0 0.0
21/02:30am 6.1 3.8 5.7 97 0.2 ESE 7 9 4 5 1020.1 - 0.0
21/02:00am 5.5 3.0 4.9 96 0.3 E 7 7 4 4 1020.3 1020.2 0.0
21/01:30am 6.2 3.8 5.3 94 0.4 E 7 7 4 4 1020.4 - 0.0
21/01:00am 6.8 3.8 6.1 95 0.3 ESE 11 11 6 6 1020.3 1020.2 0.0
21/12:30am 7.2 4.7 6.5 95 0.3 ESE 9 11 5 6 1020.3 - 0.0
21/12:00am 7.2 5.0 6.3 94 0.4 ESE 7 7 4 4 1020.3 1020.2 0.0
 
Date/Time
EST
Temp
°C
App
Temp
°C
Dew
Point
Rel
Hum
%
Delta-T
°C
Wind Press
QNH
hPa
Press
MSL
hPa
Rain
since 9 am
mm
Dir
 
Spd
km/h
Gust
km/h
Spd
kts
Gust
kts
20/11:30pm 7.1 5.0 5.9 92 0.5 E 6 6 3 3 1020.4 - 0.0
20/11:00pm 7.5 5.5 6.3 92 0.5 ENE 6 6 3 3 1020.3 1020.2 0.0
20/10:30pm 7.6 5.9 5.9 89 0.8 ENE 4 4 2 2 1020.4 - 0.0
20/10:00pm 9.1 7.2 6.5 84 1.2 NNE 6 6 3 3 1020.3 1020.2 0.0
20/09:30pm 8.3 6.3 6.4 88 0.9 NNE 6 7 3 4 1020.4 - 0.0
20/09:00pm 8.7 6.8 6.5 86 1.0 E 6 6 3 3 1020.2 1020.1 0.0
20/08:30pm 9.9 8.4 6.8 81 1.5 E 4 6 2 3 1020.1 - 0.0
20/08:00pm 10.9 8.8 6.8 76 1.9 E 7 9 4 5 1020.0 1019.9 0.0
20/07:30pm 12.2 11.4 8.3 77 1.9 E 2 6 1 3 1019.8 - 0.0
20/07:00pm 12.7 12.4 8.6 76 2.1 CALM 0 0 0 0 1019.6 1019.5 0.0
20/06:30pm 13.5 12.9 7.5 67 3.0 CALM 0 0 0 0 1019.3 - 0.0
20/06:00pm 14.0 12.9 6.8 62 3.5 WSW 2 4 1 2 1019.1 1019.0 0.0
20/05:30pm 14.8 13.6 6.4 57 4.1 WSW 2 4 1 2 1018.8 - 0.0
20/05:00pm 15.3 13.0 5.5 52 4.7 WSW 7 11 4 6 1018.6 1018.4 0.0
20/04:30pm 15.8 12.5 4.5 47 5.3 WSW 11 17 6 9 1018.4 - 0.0
20/04:00pm 15.8 12.5 4.8 48 5.2 SW 11 15 6 8 1018.3 1018.1 0.0
20/03:30pm 16.1 12.4 4.5 46 5.5 SW 13 19 7 10 1018.3 - 0.0
20/03:00pm 16.1 13.4 3.9 44 5.7 WNW 7 13 4 7 1018.1 1017.9 0.0
20/02:30pm 16.3 13.7 4.4 45 5.6 WSW 7 15 4 8 1018.0 - 0.0
20/02:00pm 16.5 13.5 3.9 43 5.9 WSW 9 17 5 9 1017.9 1017.7 0.0
20/01:30pm 16.3 13.2 3.7 43 5.9 SW 9 17 5 9 1018.2 - 0.0
20/01:00pm 15.7 13.1 4.1 46 5.4 WSW 7 15 4 8 1018.5 1018.3 0.0
20/12:30pm 16.1 13.7 4.5 46 5.5 SW 6 9 3 5 1018.9 - 0.0
20/12:00pm 15.2 13.9 6.2 55 4.4 S 2 7 1 4 1019.3 1019.2 0.0
20/11:30am 15.1 14.5 9.0 67 3.1 W 2 7 1 4 1019.8 - 0.0
20/11:00am 13.4 12.9 9.5 77 2.0 N 2 4 1 2 1020.0 1019.9 0.0
20/10:30am 12.7 12.2 9.5 81 1.6 NE 2 6 1 3 1020.0 - 0.0
20/10:00am 12.2 11.8 9.6 84 1.3 SE 2 4 1 2 1020.1 1020.0 0.0
20/09:30am 10.9 9.9 8.8 87 1.0 ENE 4 4 2 2 1020.1 - 0.0
20/09:00am 10.1 9.0 8.4 89 0.8 ENE 4 7 2 4 1020.0 1019.9 0.0
20/08:30am 9.7 9.2 9.2 97 0.2 E 2 4 1 2 1019.8 - 0.0
20/08:00am 7.3 5.8 7.0 98 0.1 SE 4 6 2 3 1019.7 1019.6 0.0
20/07:30am 5.8 3.6 5.5 98 0.1 ESE 6 7 3 4 1019.2 - 0.0
20/07:00am 4.2 1.7 3.9 98 0.1 ESE 6 7 3 4 1018.8 1018.6 0.0
20/06:30am 4.3 1.8 4.0 98 0.1 E 6 7 3 4 1018.5 - 0.0
20/06:00am 4.2 1.7 3.9 98 0.1 E 6 7 3 4 1018.3 1018.1 0.0
20/05:30am 3.8 1.6 3.5 98 0.1 SE 4 4 2 2 1018.2 - 0.0
20/05:00am 4.2 2.1 3.9 98 0.1 S 4 4 2 2 1017.9 1017.7 0.0
20/04:30am 4.7 3.1 4.4 98 0.1 W 2 4 1 2 1017.6 - 0.0
20/04:00am 5.3 3.8 5.0 98 0.1 W 2 4 1 2 1017.6 1017.4 0.0
20/03:30am 5.3 3.8 5.0 98 0.1 W 2 4 1 2 1017.5 - 0.0
20/03:00am 5.1 3.9 4.7 97 0.2 CALM 0 0 0 0 1017.4 1017.2 0.0
20/02:30am 6.1 4.7 5.7 97 0.2 W 2 4 1 2 1017.5 - 0.0
20/02:00am 6.3 4.2 5.9 97 0.2 W 6 6 3 3 1017.7 1017.5 0.0
20/01:30am 6.6 4.6 6.3 98 0.1 W 6 9 3 5 1017.8 - 0.0
20/01:00am 5.8 4.8 5.4 97 0.2 CALM 0 2 0 1 1017.6 1017.4 0.0
20/12:30am 5.7 4.5 4.8 94 0.4 CALM 0 0 0 0 1017.5 - 0.0
20/12:00am 6.8 5.2 6.2 96 0.3 W 4 4 2 2 1017.6 1017.4 0.0
 
Date/Time
EST
Temp
°C
App
Temp
°C
Dew
Point
Rel
Hum
%
Delta-T
°C
Wind Press
QNH
hPa
Press
MSL
hPa
Rain
since 9 am
mm
Dir
 
Spd
km/h
Gust
km/h
Spd
kts
Gust
kts
19/11:30pm 7.0 5.4 6.3 95 0.3 W 4 4 2 2 1017.7 - 0.0
19/11:00pm 7.3 5.8 6.7 96 0.3 W 4 6 2 3 1017.8 1017.6 0.0
19/10:30pm 7.3 5.3 6.4 94 0.4 W 6 7 3 4 1018.1 - 0.0
19/10:00pm 7.3 5.2 5.9 91 0.6 W 6 7 3 4 1018.2 1018.0 0.0
19/09:30pm 8.1 6.2 6.6 90 0.7 W 6 7 3 4 1018.3 - 0.0
19/09:00pm 8.5 6.5 6.3 86 1.0 W 6 7 3 4 1018.4 1018.2 0.0
19/08:30pm 9.1 7.3 7.1 87 0.9 WSW 6 7 3 4 1018.3 - 0.0
19/08:00pm 9.2 7.2 7.2 87 0.9 SW 7 7 4 4 1018.2 1018.0 0.0
19/07:30pm 9.5 7.6 6.9 84 1.2 SW 6 7 3 4 1018.1 - 0.0
19/07:00pm 10.4 8.4 7.3 81 1.5 SW 7 9 4 5 1018.1 1017.9 0.0
19/06:30pm 11.2 8.9 7.5 78 1.8 SW 9 11 5 6 1018.0 - 0.0
19/06:00pm 12.8 9.3 7.0 68 2.8 SW 15 19 8 10 1017.8 1017.6 0.0
19/05:30pm 14.0 10.8 6.8 62 3.5 SW 13 17 7 9 1017.6 - 0.0
19/05:00pm 14.7 11.6 7.3 61 3.7 SW 13 17 7 9 1017.6 1017.4 0.0
19/04:30pm 15.1 11.0 6.4 56 4.2 SW 17 26 9 14 1017.6 - 0.0
19/04:00pm 15.3 11.3 6.8 57 4.2 SSW 17 20 9 11 1017.6 1017.4 0.0
19/03:30pm 17.2 13.1 6.4 49 5.3 S 17 22 9 12 1017.5 - 0.0
19/03:00pm 17.9 13.8 6.1 46 5.8 SSW 17 22 9 12 1017.6 1017.4 0.0
19/02:30pm 17.9 13.8 6.4 47 5.7 SW 17 26 9 14 1017.7 - 0.0
19/02:00pm 17.0 12.6 6.5 50 5.2 SW 19 28 10 15 1017.8 1017.6 0.0
19/01:30pm 17.0 12.8 5.9 48 5.4 SSW 17 32 9 17 1018.0 - 0.0
19/01:00pm 16.8 12.2 5.4 47 5.5 S 19 28 10 15 1018.4 1018.2 0.0
19/12:30pm 16.4 12.7 6.5 52 4.9 SSW 15 26 8 14 1019.0 - 0.0
19/12:00pm 16.3 12.3 6.7 53 4.7 SSW 17 26 9 14 1019.3 1019.2 0.0
19/11:30am 16.8 13.5 6.6 51 5.1 S 13 24 7 13 1019.7 - 0.0
19/11:00am 16.1 11.5 5.7 50 5.0 S 19 24 10 13 1019.9 1019.8 0.0
19/10:30am 15.6 11.0 5.8 52 4.7 S 19 30 10 16 1019.9 - 0.0
19/10:00am 14.1 10.3 7.4 64 3.3 SW 17 20 9 11 1020.0 1019.9 0.0
19/09:30am 13.3 10.0 8.2 71 2.5 SW 15 20 8 11 1020.0 - 0.0
19/09:00am 11.9 7.9 8.2 78 1.8 SW 19 22 10 12 1019.9 1019.8 0.0
19/08:30am 10.5 7.6 8.1 85 1.2 SW 13 17 7 9 1019.9 - 0.0
19/08:00am 8.8 6.1 7.4 91 0.7 SW 11 15 6 8 1019.7 1019.6 0.0
19/07:30am 7.3 5.2 6.7 96 0.3 SW 7 9 4 5 1019.4 - 0.0
19/07:00am 6.5 3.9 6.2 98 0.1 WSW 9 11 5 6 1018.8 1018.6 0.0
19/06:30am 6.1 3.4 5.8 98 0.1 WSW 9 11 5 6 1018.9 - 0.0
19/06:00am 5.9 3.6 5.5 97 0.2 SW 7 9 4 5 1018.7 1018.5 0.0
19/05:30am 6.7 4.1 6.1 96 0.3 WSW 9 11 5 6 1018.7 - 0.0
19/05:00am 6.6 4.0 5.9 95 0.3 WSW 9 11 5 6 1018.7 1018.5 0.0
19/04:30am 7.0 4.1 6.3 95 0.3 WSW 11 13 6 7 1018.6 - 0.0
19/04:00am 6.8 4.2 6.1 95 0.3 SW 9 11 5 6 1018.4 1018.2 0.0
19/03:30am 6.8 4.7 5.7 93 0.5 SW 6 9 3 5 1018.3 - 0.0
19/03:00am 7.9 5.4 6.4 90 0.7 WSW 9 13 5 7 1018.4 1018.2 0.0
19/02:30am 8.1 4.8 6.6 90 0.7 SW 13 15 7 8 1018.5 - 0.0
19/02:00am 8.3 5.8 6.6 89 0.8 SW 9 13 5 7 1018.8 1018.6 0.0
19/01:30am 8.4 5.2 7.0 91 0.7 SW 13 15 7 8 1018.7 - 0.0
19/01:00am 8.3 5.0 6.6 89 0.8 WSW 13 13 7 7 1018.8 1018.6 0.0
19/12:30am 9.5 6.3 6.9 84 1.2 W 13 15 7 8 1018.9 - 0.0
19/12:00am 9.7 6.6 7.1 84 1.2 WSW 13 15 7 8 1018.9 1018.7 0.0
 
Date/Time
EST
Temp
°C
App
Temp
°C
Dew
Point
Rel
Hum
%
Delta-T
°C
Wind Press
QNH
hPa
Press
MSL
hPa
Rain
since 9 am
mm
Dir
 
Spd
km/h
Gust
km/h
Spd
kts
Gust
kts
18/11:30pm 9.0 6.6 7.1 88 0.9 WSW 9 11 5 6 1018.9 - 0.0
18/11:00pm 9.6 6.9 7.5 87 1.0 SW 11 15 6 8 1019.1 1019.0 0.0
18/10:30pm 9.7 7.3 7.1 84 1.2 SW 9 11 5 6 1019.2 - 0.0
18/10:00pm 10.9 7.8 7.4 79 1.7 SW 13 17 7 9 1019.2 1019.1 0.0
18/09:30pm 11.2 7.8 7.5 78 1.8 SW 15 17 8 9 1019.0 - 0.0
18/09:00pm 11.9 8.4 7.4 74 2.2 SSW 15 20 8 11 1018.7 1018.5 0.0
18/08:30pm 11.5 9.0 8.0 79 1.7 SW 11 15 6 8 1018.5 - 0.0

Other Formats:

Comma delimited format used in spreadsheet applications
http://www.bom.gov.au/fwo/IDV60801/IDV60801.94862.axf

JavaScript Object Notation format (JSON) in row-major order
http://www.bom.gov.au/fwo/IDV60801/IDV60801.94862.json